createdAt,value
2018-10-07T00:02:22.040Z,12.60
2018-10-07T00:04:50.713Z,13.40
2018-10-07T00:07:19.396Z,13.37
2018-10-07T00:09:48.534Z,10.20
2018-10-07T00:12:17.181Z,11.00
2018-10-07T00:14:45.841Z,10.63
2018-10-07T00:17:14.436Z,11.00
2018-10-07T00:19:43.066Z,10.87
2018-10-07T00:22:11.732Z,10.70
2018-10-07T00:24:40.421Z,11.67
2018-10-07T00:27:09.012Z,12.90
2018-10-07T00:29:37.613Z,11.20
2018-10-07T00:32:12.028Z,13.20
2018-10-07T00:34:40.624Z,11.57
2018-10-07T00:37:09.230Z,12.57
2018-10-07T00:39:37.855Z,12.33
2018-10-07T00:42:06.476Z,12.67
2018-10-07T00:44:35.124Z,11.23
2018-10-07T00:47:03.782Z,11.20
2018-10-07T00:49:34.645Z,11.23
2018-10-07T00:52:03.310Z,12.70
2018-10-07T00:54:31.959Z,11.97
2018-10-07T00:57:00.556Z,17.53
2018-10-07T00:59:29.240Z,11.40
2018-10-07T01:01:57.823Z,12.20
2018-10-07T01:04:26.380Z,12.20
2018-10-07T01:06:55.072Z,11.60
2018-10-07T01:09:23.669Z,12.47
2018-10-07T01:11:52.549Z,11.23
2018-10-07T01:14:21.461Z,12.37
2018-10-07T01:16:50.396Z,13.80
2018-10-07T01:19:19.315Z,12.77
2018-10-07T01:21:48.060Z,15.13
2018-10-07T01:24:21.709Z,14.30
2018-10-07T01:26:50.307Z,16.53
2018-10-07T01:29:18.862Z,11.17
2018-10-07T01:31:47.525Z,12.67
2018-10-07T01:34:16.157Z,10.43
2018-10-07T01:36:44.797Z,11.67
2018-10-07T01:39:13.391Z,11.70
2018-10-07T01:41:42.037Z,10.70
2018-10-07T01:44:10.555Z,11.03
2018-10-07T01:46:39.207Z,11.23
2018-10-07T01:49:07.768Z,13.27
2018-10-07T01:51:36.387Z,12.43
2018-10-07T01:54:05.049Z,11.77
2018-10-07T01:56:33.653Z,12.33
2018-10-07T01:59:02.313Z,12.50
2018-10-07T02:01:30.904Z,10.87
2018-10-07T02:03:59.429Z,11.77
2018-10-07T02:06:28.053Z,11.67
2018-10-07T02:08:56.655Z,13.27
2018-10-07T02:11:25.267Z,11.20
2018-10-07T02:13:57.998Z,12.00
2018-10-07T02:16:26.594Z,11.43
2018-10-07T02:18:55.164Z,10.97
2018-10-07T02:21:23.755Z,11.97
2018-10-07T02:23:52.374Z,12.10
2018-10-07T02:26:20.957Z,11.53
2018-10-07T02:28:49.522Z,11.50
2018-10-07T02:31:18.244Z,11.17
2018-10-07T02:33:46.853Z,13.57
2018-10-07T02:36:15.500Z,10.90
2018-10-07T02:38:44.130Z,11.73
2018-10-07T02:41:12.750Z,10.73
2018-10-07T02:43:41.354Z,12.27
2018-10-07T02:46:09.994Z,12.60
2018-10-07T02:48:38.602Z,13.70
2018-10-07T02:51:07.307Z,12.00
2018-10-07T02:53:35.929Z,10.87
2018-10-07T02:56:04.597Z,11.30
2018-10-07T02:58:33.338Z,15.17
2018-10-07T03:01:01.902Z,11.00
2018-10-07T03:03:30.571Z,14.73
2018-10-07T03:05:59.189Z,11.20
2018-10-07T03:08:27.838Z,11.10
2018-10-07T03:10:56.490Z,13.40
2018-10-07T03:13:25.157Z,12.70
2018-10-07T03:15:53.785Z,12.43
2018-10-07T03:18:22.524Z,12.73
2018-10-07T03:20:51.110Z,11.07
2018-10-07T03:23:19.763Z,14.77
2018-10-07T03:25:48.351Z,10.57
2018-10-07T03:28:17.006Z,12.20
2018-10-07T03:30:45.677Z,13.00
2018-10-07T03:33:14.275Z,12.30
2018-10-07T03:35:42.849Z,10.90
2018-10-07T03:38:11.493Z,13.27
2018-10-07T03:40:40.054Z,12.40
2018-10-07T03:43:10.793Z,13.47
2018-10-07T03:45:39.436Z,13.63
2018-10-07T03:48:08.022Z,13.37
2018-10-07T03:50:36.641Z,15.97
2018-10-07T03:53:05.288Z,12.80
2018-10-07T03:55:33.909Z,12.70
2018-10-07T03:58:10.341Z,11.60
2018-10-07T04:00:38.970Z,13.53
2018-10-07T04:03:07.684Z,13.10
2018-10-07T04:05:36.298Z,13.70
2018-10-07T04:08:04.947Z,13.30
2018-10-07T04:10:33.623Z,14.40
2018-10-07T04:13:02.337Z,13.10
2018-10-07T04:15:30.961Z,13.63
2018-10-07T04:17:59.655Z,13.73
2018-10-07T04:20:28.338Z,12.00
2018-10-07T04:22:56.990Z,12.27
2018-10-07T04:25:25.661Z,13.30
2018-10-07T04:27:54.343Z,13.97
2018-10-07T04:30:23.016Z,12.00
2018-10-07T04:32:51.696Z,11.00
2018-10-07T04:35:20.403Z,13.30
2018-10-07T04:37:49.017Z,15.17
2018-10-07T04:40:17.698Z,12.63
2018-10-07T04:42:46.568Z,12.70
2018-10-07T04:45:15.408Z,11.70
2018-10-07T04:47:44.225Z,14.00
2018-10-07T04:50:12.914Z,11.73
2018-10-07T04:52:41.515Z,12.03
2018-10-07T04:55:10.169Z,11.93
2018-10-07T04:57:38.753Z,14.73
2018-10-07T05:00:07.405Z,13.80
2018-10-07T05:02:35.948Z,11.40
2018-10-07T05:05:04.672Z,12.63
2018-10-07T05:07:33.358Z,12.80
2018-10-07T05:10:13.158Z,11.80
2018-10-07T05:12:41.885Z,14.27
2018-10-07T05:15:10.584Z,14.50
2018-10-07T05:17:39.238Z,13.20
2018-10-07T05:20:07.977Z,14.27
2018-10-07T05:22:36.608Z,13.33
2018-10-07T05:25:05.300Z,14.90
2018-10-07T05:27:33.977Z,14.53
2018-10-07T05:30:02.740Z,15.97
2018-10-07T05:32:31.327Z,14.07
2018-10-07T05:35:00.001Z,16.10
2018-10-07T05:37:28.594Z,15.57
2018-10-07T05:39:57.233Z,15.30
2018-10-07T05:42:25.907Z,18.47
2018-10-07T05:44:54.589Z,19.20
2018-10-07T05:47:23.273Z,15.93
2018-10-07T05:49:51.888Z,15.30
2018-10-07T05:52:20.447Z,13.97
2018-10-07T05:54:49.233Z,13.50
2018-10-07T05:57:17.878Z,20.90
2018-10-07T05:59:46.585Z,13.97
2018-10-07T06:02:15.346Z,13.73
2018-10-07T06:05:00.165Z,13.23
2018-10-07T06:07:29.637Z,16.23
2018-10-07T06:09:58.296Z,16.30
2018-10-07T06:12:27.097Z,14.67
2018-10-07T06:15:06.881Z,14.30
2018-10-07T06:17:35.469Z,15.63
2018-10-07T06:20:04.096Z,17.93
2018-10-07T06:22:38.999Z,17.30
2018-10-07T06:25:07.644Z,19.70
2018-10-07T06:27:36.280Z,16.93
2018-10-07T06:30:05.424Z,15.67
2018-10-07T06:32:34.042Z,19.57
2018-10-07T06:35:04.834Z,15.00
2018-10-07T06:37:37.873Z,17.07
2018-10-07T06:40:07.645Z,18.20
2018-10-07T06:42:42.070Z,18.90
2018-10-07T06:45:11.122Z,18.33
2018-10-07T06:47:40.277Z,15.87
2018-10-07T06:50:10.013Z,16.10
2018-10-07T06:52:38.744Z,15.50
2018-10-07T06:55:07.410Z,14.90
2018-10-07T06:57:36.037Z,15.20
2018-10-07T07:00:04.942Z,16.30
2018-10-07T07:02:33.546Z,15.57
2018-10-07T07:05:03.338Z,16.23
2018-10-07T07:07:31.971Z,14.77
2018-10-07T07:10:02.871Z,14.10
2018-10-07T07:12:31.651Z,15.13
2018-10-07T07:15:00.305Z,14.50
2018-10-07T07:17:29.010Z,16.30
2018-10-07T07:19:59.870Z,15.40
2018-10-07T07:22:28.533Z,15.00
2018-10-07T07:24:57.162Z,17.20
2018-10-07T07:27:29.883Z,17.03
2018-10-07T07:29:58.537Z,14.57
2018-10-07T07:32:28.217Z,13.43
2018-10-07T07:34:56.874Z,13.20
2018-10-07T07:37:25.591Z,13.90
2018-10-07T07:39:54.162Z,15.17
2018-10-07T07:42:22.830Z,13.50
2018-10-07T07:44:52.118Z,12.20
2018-10-07T07:47:20.743Z,14.87
2018-10-07T07:49:49.388Z,13.83
2018-10-07T07:52:18.864Z,15.27
2018-10-07T07:54:47.565Z,15.63
2018-10-07T07:57:16.251Z,16.43
2018-10-07T07:59:44.854Z,11.50
2018-10-07T08:02:13.645Z,11.77
2018-10-07T08:04:42.195Z,13.90
2018-10-07T08:07:10.810Z,14.17
2018-10-07T08:09:39.446Z,11.03
2018-10-07T08:12:08.109Z,12.80
2018-10-07T08:14:36.709Z,11.07
2018-10-07T08:17:14.828Z,11.60
2018-10-07T08:19:43.440Z,10.97
2018-10-07T08:22:12.091Z,11.47
2018-10-07T08:24:40.688Z,11.80
2018-10-07T08:27:09.293Z,9.20
2018-10-07T08:29:37.936Z,9.17
2018-10-07T08:32:06.573Z,9.20
2018-10-07T08:34:35.192Z,9.27
2018-10-07T08:37:03.841Z,10.40
2018-10-07T08:39:32.463Z,10.03
2018-10-07T08:42:02.168Z,9.70
2018-10-07T08:44:30.730Z,10.63
2018-10-07T08:46:59.350Z,10.63
2018-10-07T08:49:28.990Z,10.90
2018-10-07T08:51:57.609Z,10.07
2018-10-07T08:54:26.147Z,10.00
2018-10-07T08:56:54.755Z,9.87
2018-10-07T08:59:23.395Z,8.90
2018-10-07T09:01:52.109Z,8.60
2018-10-07T09:04:20.713Z,8.60
2018-10-07T09:06:49.344Z,9.57
2018-10-07T09:09:17.908Z,8.20
2018-10-07T09:11:46.545Z,7.43
2018-10-07T09:14:15.165Z,7.47
2018-10-07T09:16:43.812Z,8.60
2018-10-07T09:19:12.379Z,7.77
2018-10-07T09:21:40.976Z,8.10
2018-10-07T09:24:09.655Z,9.70
2018-10-07T09:26:38.246Z,9.03
2018-10-07T09:29:06.914Z,9.57
2018-10-07T09:31:35.581Z,7.17
2018-10-07T09:34:04.150Z,9.73
2018-10-07T09:36:32.782Z,6.67
2018-10-07T09:39:01.363Z,9.70
2018-10-07T09:41:30.075Z,7.13
2018-10-07T09:43:58.657Z,6.83
2018-10-07T09:46:27.457Z,7.30
2018-10-07T09:49:00.821Z,7.10
2018-10-07T09:51:29.434Z,7.57
2018-10-07T09:53:58.043Z,9.03
2018-10-07T09:56:26.653Z,8.70
2018-10-07T09:58:55.295Z,8.50
2018-10-07T10:01:24.033Z,7.63
2018-10-07T10:03:53.645Z,9.03
2018-10-07T10:06:22.279Z,7.47
2018-10-07T10:08:50.948Z,7.70
2018-10-07T10:11:19.606Z,8.23
2018-10-07T10:13:48.189Z,9.90
2018-10-07T10:16:16.849Z,7.70
2018-10-07T10:18:59.461Z,8.23
2018-10-07T10:21:36.749Z,7.70
2018-10-07T10:25:24.729Z,6.90
2018-10-07T10:28:00.077Z,7.87
2018-10-07T10:30:41.129Z,7.10
2018-10-07T10:33:22.537Z,6.20
2018-10-07T10:35:53.092Z,9.07
2018-10-07T10:38:58.825Z,10.57
2018-10-07T10:41:32.301Z,8.77
2018-10-07T10:44:28.396Z,5.73
2018-10-07T10:47:06.721Z,8.57
2018-10-07T10:49:43.605Z,6.73
2018-10-07T10:52:24.265Z,8.60
2018-10-07T10:55:01.935Z,8.10
2018-10-07T10:57:43.259Z,8.93
2018-10-07T11:00:18.053Z,6.77
2018-10-07T11:03:00.427Z,7.60
2018-10-07T11:05:35.412Z,13.03
2018-10-07T11:08:15.549Z,8.60
2018-10-07T11:11:01.626Z,7.67
2018-10-07T11:13:43.867Z,6.83
2018-10-07T11:17:27.824Z,8.03
2018-10-07T11:20:04.850Z,9.57
2018-10-07T11:24:47.380Z,6.73
2018-10-07T11:27:30.045Z,6.60
2018-10-07T11:30:37.793Z,6.37
2018-10-07T11:37:31.424Z,6.17
2018-10-07T11:40:09.442Z,8.30
2018-10-07T11:44:55.422Z,7.37
2018-10-07T11:47:34.395Z,6.40
2018-10-07T11:50:10.021Z,7.03
2018-10-07T11:52:53.348Z,6.50
2018-10-07T11:55:32.374Z,7.63
2018-10-07T11:58:00.988Z,6.20
2018-10-07T12:00:29.624Z,8.37
2018-10-07T12:02:58.189Z,7.33
2018-10-07T12:05:26.912Z,6.10
2018-10-07T12:07:55.562Z,8.00
2018-10-07T12:10:24.179Z,7.40
2018-10-07T12:12:54.801Z,6.13
2018-10-07T12:15:23.381Z,6.83
2018-10-07T12:17:52.100Z,7.60
2018-10-07T12:20:20.698Z,5.83
2018-10-07T12:22:49.291Z,7.77
2018-10-07T12:25:17.920Z,8.90
2018-10-07T12:27:46.486Z,8.10
2018-10-07T12:30:15.124Z,8.90
2018-10-07T12:32:43.725Z,8.23
2018-10-07T12:35:12.377Z,10.20
2018-10-07T12:37:40.953Z,8.70
2018-10-07T12:40:09.610Z,6.40
2018-10-07T12:42:38.268Z,9.23
2018-10-07T12:45:06.965Z,9.10
2018-10-07T12:47:35.555Z,8.87
2018-10-07T12:50:06.704Z,5.70
2018-10-07T12:52:36.534Z,6.80
2018-10-07T12:55:05.280Z,6.93
2018-10-07T12:57:33.871Z,8.13
2018-10-07T13:00:02.575Z,7.33
2018-10-07T13:02:31.323Z,7.23
2018-10-07T13:04:59.928Z,9.30
2018-10-07T13:07:29.541Z,6.60
2018-10-07T13:09:58.219Z,7.53
2018-10-07T13:12:26.819Z,9.63
2018-10-07T13:14:55.371Z,6.93
2018-10-07T13:17:34.110Z,9.10
2018-10-07T13:20:02.714Z,8.47
2018-10-07T13:22:31.320Z,7.80
2018-10-07T13:25:00.021Z,7.90
2018-10-07T13:27:28.631Z,6.60
2018-10-07T13:29:57.212Z,9.73
2018-10-07T13:32:25.825Z,6.10
2018-10-07T13:34:54.443Z,8.57
2018-10-07T13:37:39.953Z,7.70
2018-10-07T13:40:08.668Z,5.40
2018-10-07T13:42:37.211Z,6.80
2018-10-07T13:45:06.001Z,5.00
2018-10-07T13:47:34.595Z,10.23
2018-10-07T13:50:03.187Z,6.53
2018-10-07T13:52:31.769Z,5.60
2018-10-07T13:55:00.401Z,5.10
2018-10-07T13:57:28.998Z,5.67
2018-10-07T13:59:57.633Z,6.00
2018-10-07T14:02:26.218Z,6.07
2018-10-07T14:04:54.838Z,7.43
2018-10-07T14:07:23.465Z,4.93
2018-10-07T14:09:52.061Z,6.33
2018-10-07T14:12:33.243Z,5.50
2018-10-07T14:15:01.845Z,4.87
2018-10-07T14:17:30.449Z,7.20
2018-10-07T14:19:59.041Z,5.63
2018-10-07T14:22:27.639Z,4.97
2018-10-07T14:24:56.239Z,6.90
2018-10-07T14:27:24.927Z,5.43
2018-10-07T14:29:53.595Z,6.50
2018-10-07T14:32:22.478Z,6.17
2018-10-07T14:34:51.340Z,6.00
2018-10-07T14:37:20.247Z,4.70
2018-10-07T14:39:49.158Z,6.50
2018-10-07T14:42:22.457Z,8.50
2018-10-07T14:44:51.060Z,5.27
2018-10-07T14:47:19.669Z,5.93
2018-10-07T14:49:48.252Z,7.13
2018-10-07T14:52:17.672Z,5.00
2018-10-07T14:54:46.282Z,4.90
2018-10-07T14:57:21.312Z,5.40
2018-10-07T14:59:49.917Z,7.90
2018-10-07T15:02:18.848Z,5.77
2018-10-07T15:04:47.443Z,5.67
2018-10-07T15:07:16.061Z,6.90
2018-10-07T15:09:48.406Z,6.73
2018-10-07T15:12:17.105Z,12.03
2018-10-07T15:14:45.852Z,6.23
2018-10-07T15:17:14.517Z,5.70
2018-10-07T15:19:43.282Z,9.00
2018-10-07T15:22:11.931Z,5.90
2018-10-07T15:24:40.520Z,7.13
2018-10-07T15:27:09.167Z,6.20
2018-10-07T15:29:37.790Z,6.83
2018-10-07T15:32:06.441Z,7.87
2018-10-07T15:34:35.034Z,6.17
2018-10-07T15:37:04.179Z,5.50
2018-10-07T15:39:32.782Z,7.53
2018-10-07T15:42:01.612Z,6.90
2018-10-07T15:44:31.358Z,6.27
2018-10-07T15:47:00.018Z,6.47
2018-10-07T15:49:28.790Z,6.10
2018-10-07T15:51:57.435Z,7.40
2018-10-07T15:54:26.057Z,5.83
2018-10-07T15:56:54.868Z,6.80
2018-10-07T15:59:24.602Z,6.17
2018-10-07T16:01:53.440Z,7.50
2018-10-07T16:04:22.303Z,5.80
2018-10-07T16:06:51.192Z,6.40
2018-10-07T16:09:20.022Z,8.80
2018-10-07T16:11:48.943Z,7.33
2018-10-07T16:14:17.803Z,7.97
2018-10-07T16:16:46.679Z,7.67
2018-10-07T16:19:15.604Z,7.70
2018-10-07T16:21:44.234Z,6.73
2018-10-07T16:24:12.937Z,6.83
2018-10-07T16:26:46.200Z,6.83
2018-10-07T16:29:14.760Z,12.93
2018-10-07T16:31:46.784Z,7.40
2018-10-07T16:34:15.366Z,10.73
2018-10-07T16:36:44.152Z,8.20
2018-10-07T16:39:12.790Z,8.53
2018-10-07T16:41:41.472Z,6.43
2018-10-07T16:44:10.061Z,6.80
2018-10-07T16:46:38.783Z,6.43
2018-10-07T16:49:07.437Z,9.80
2018-10-07T16:51:36.077Z,6.43
2018-10-07T16:54:04.625Z,6.93
2018-10-07T16:56:33.237Z,6.57
2018-10-07T16:59:10.004Z,7.57
2018-10-07T17:01:38.607Z,9.10
2018-10-07T17:04:07.316Z,8.17
2018-10-07T17:06:40.835Z,6.20
2018-10-07T17:09:10.059Z,8.53
2018-10-07T17:11:42.170Z,7.20
2018-10-07T17:14:10.920Z,8.57
2018-10-07T17:16:39.534Z,7.30
2018-10-07T17:19:08.322Z,8.40
2018-10-07T17:21:36.917Z,7.00
2018-10-07T17:24:05.558Z,11.37
2018-10-07T17:26:34.310Z,7.03
2018-10-07T17:29:03.019Z,8.70
2018-10-07T17:31:31.695Z,8.90
2018-10-07T17:34:00.322Z,11.93
2018-10-07T17:36:28.996Z,7.60
2018-10-07T17:38:57.600Z,8.03
2018-10-07T17:41:26.394Z,11.90
2018-10-07T17:43:55.106Z,8.97
2018-10-07T17:46:23.803Z,9.00
2018-10-07T17:48:52.908Z,9.63
2018-10-07T17:51:21.542Z,10.10
2018-10-07T17:53:50.222Z,13.50
2018-10-07T17:56:18.885Z,10.40
2018-10-07T17:58:47.457Z,10.10
2018-10-07T18:01:16.101Z,12.00
2018-10-07T18:03:44.692Z,9.90
2018-10-07T18:06:13.279Z,11.93
2018-10-07T18:08:41.931Z,11.00
2018-10-07T18:11:10.605Z,9.63
2018-10-07T18:13:39.264Z,11.70
2018-10-07T18:16:09.880Z,11.00
2018-10-07T18:18:38.514Z,10.20
2018-10-07T18:21:07.236Z,11.03
2018-10-07T18:23:35.856Z,11.90
2018-10-07T18:26:04.528Z,11.97
2018-10-07T18:28:35.204Z,11.57
2018-10-07T18:31:03.858Z,13.40
2018-10-07T18:33:32.579Z,11.37
2018-10-07T18:36:01.129Z,13.20
2018-10-07T18:38:29.795Z,12.10
2018-10-07T18:40:58.389Z,12.30
2018-10-07T18:43:27.129Z,12.33
2018-10-07T18:45:55.705Z,14.70
2018-10-07T18:48:24.418Z,17.83
2018-10-07T18:50:53.100Z,13.60
2018-10-07T18:53:21.778Z,12.37
2018-10-07T18:55:50.347Z,12.70
2018-10-07T18:58:19.047Z,12.43
2018-10-07T19:00:47.683Z,14.83
2018-10-07T19:03:16.314Z,16.17
2018-10-07T19:05:44.933Z,15.17
2018-10-07T19:08:13.540Z,16.43
2018-10-07T19:10:42.167Z,15.03
2018-10-07T19:13:15.077Z,14.10
2018-10-07T19:15:43.741Z,17.13
2018-10-07T19:18:12.317Z,16.23
2018-10-07T19:20:40.993Z,17.97
2018-10-07T19:23:09.564Z,16.07
2018-10-07T19:25:38.257Z,15.90
2018-10-07T19:28:06.937Z,16.40
2018-10-07T19:30:35.695Z,17.90
2018-10-07T19:33:04.247Z,15.53
2018-10-07T19:35:32.900Z,18.00
2018-10-07T19:38:01.456Z,16.67
2018-10-07T19:40:30.091Z,19.67
2018-10-07T19:42:58.667Z,19.00
2018-10-07T19:45:28.371Z,14.93
2018-10-07T19:47:56.889Z,15.40
2018-10-07T19:50:25.647Z,16.07
2018-10-07T19:52:55.344Z,14.83
2018-10-07T19:55:23.967Z,17.87
2018-10-07T19:57:52.618Z,22.60
2018-10-07T20:00:21.296Z,20.73
2018-10-07T20:02:50.022Z,20.67
2018-10-07T20:05:18.622Z,21.97
2018-10-07T20:07:47.287Z,19.57
2018-10-07T20:10:15.953Z,21.47
2018-10-07T20:12:44.530Z,21.10
2018-10-07T20:15:13.194Z,22.30
2018-10-07T20:17:41.820Z,19.60
2018-10-07T20:20:10.604Z,21.50
2018-10-07T20:22:39.226Z,23.27
2018-10-07T20:25:07.877Z,17.20
2018-10-07T20:27:36.463Z,16.67
2018-10-07T20:30:05.574Z,15.47
2018-10-07T20:32:34.171Z,15.20
2018-10-07T20:35:02.766Z,16.07
2018-10-07T20:37:31.409Z,17.73
2018-10-07T20:40:01.119Z,15.03
2018-10-07T20:42:29.722Z,15.50
2018-10-07T20:44:58.372Z,17.67
2018-10-07T20:47:26.950Z,16.80
2018-10-07T20:49:55.515Z,19.20
2018-10-07T20:52:24.192Z,15.90
2018-10-07T20:54:52.829Z,16.37
2018-10-07T20:57:26.232Z,16.63
2018-10-07T20:59:54.842Z,19.83
2018-10-07T21:02:23.470Z,18.20
2018-10-07T21:04:52.052Z,20.03
2018-10-07T21:07:20.807Z,15.83
2018-10-07T21:09:49.726Z,17.50
2018-10-07T21:12:18.318Z,21.67
2018-10-07T21:14:46.976Z,18.23
2018-10-07T21:17:15.734Z,18.40
2018-10-07T21:19:44.324Z,20.80
2018-10-07T21:22:12.987Z,20.73
2018-10-07T21:24:41.562Z,19.27
2018-10-07T21:27:10.160Z,18.93
2018-10-07T21:29:38.748Z,19.30
2018-10-07T21:32:07.357Z,19.37
2018-10-07T21:34:37.074Z,23.80
2018-10-07T21:37:06.062Z,19.97
2018-10-07T21:39:34.646Z,17.07
2018-10-07T21:42:03.347Z,17.40
2018-10-07T21:44:31.962Z,18.67
2018-10-07T21:47:00.589Z,20.90
2018-10-07T21:49:29.215Z,19.03
2018-10-07T21:51:57.950Z,18.60
2018-10-07T21:54:26.535Z,19.37
2018-10-07T21:56:55.198Z,17.73
2018-10-07T21:59:23.790Z,22.47
2018-10-07T22:01:52.624Z,19.10
2018-10-07T22:04:21.555Z,20.43
2018-10-07T22:06:50.525Z,22.20
2018-10-07T22:09:19.345Z,19.70
2018-10-07T22:11:48.198Z,23.60
2018-10-07T22:14:17.141Z,22.00
2018-10-07T22:16:45.965Z,22.80
2018-10-07T22:19:24.740Z,22.87
2018-10-07T22:21:53.356Z,26.63
2018-10-07T22:24:21.991Z,27.80
2018-10-07T22:26:50.735Z,26.13
2018-10-07T22:29:19.250Z,24.20
2018-10-07T22:31:47.950Z,23.93
2018-10-07T22:34:16.545Z,28.07
2018-10-07T22:36:45.095Z,27.73
2018-10-07T22:39:13.731Z,27.03
2018-10-07T22:41:42.337Z,29.00
2018-10-07T22:44:10.925Z,29.37
2018-10-07T22:46:39.584Z,29.70
2018-10-07T22:49:08.251Z,25.93
2018-10-07T22:51:36.833Z,24.10
2018-10-07T22:54:05.451Z,26.80
2018-10-07T22:56:34.119Z,28.57
2018-10-07T22:59:08.007Z,27.10
2018-10-07T23:01:36.890Z,32.67
2018-10-07T23:04:06.021Z,32.30
2018-10-07T23:06:34.860Z,30.37
2018-10-07T23:09:04.782Z,28.70
2018-10-07T23:11:33.601Z,29.90
2018-10-07T23:14:02.410Z,33.20
2018-10-07T23:16:31.352Z,26.77
2018-10-07T23:19:00.283Z,30.03
2018-10-07T23:21:29.577Z,33.83
2018-10-07T23:23:58.521Z,28.17
2018-10-07T23:26:27.415Z,26.67
2018-10-07T23:28:59.957Z,33.07
2018-10-07T23:31:28.863Z,31.60
2018-10-07T23:33:57.670Z,32.27
2018-10-07T23:36:26.604Z,34.40
2018-10-07T23:38:55.584Z,35.47
2018-10-07T23:41:24.437Z,31.10
2018-10-07T23:43:53.113Z,32.20
2018-10-07T23:46:21.716Z,34.97
2018-10-07T23:48:50.325Z,36.70
2018-10-07T23:51:18.944Z,35.77
2018-10-07T23:53:49.596Z,32.43
2018-10-07T23:56:18.217Z,35.03
2018-10-07T23:58:46.842Z,34.80
